Terminal Aerodrome Forecast
Issued by NWS

Home | Current Version | Previous Version | Graphics & Text | Print | Product List | Glossary On
Versions: 1 2 3 4 5 6 7 8 9 10 11 12 13 14 15 16 17 18 19 20 21 22
000
FTUS43 KLSX 051615 AAD
TAFSUS
TAF AMD
KSUS 051615Z 0516/0612 VRB04KT P6SM OVC013
     FM051900 15005KT P6SM SCT015
     FM060400 12004KT P6SM VCSH BKN050
     FM060600 VRB03KT P6SM VCSH OVC025=

USA.gov is the U.S. government's official web portal to all federal, state and local government web resources and services.